Alexander Duff — WDD9658 — position and weather

sailwx.info

Track history (hours):
 
Tides and Currents Weather Stations Pressure Air Temp Water Temp Dewpoint Dewpoint Depression Visibility Wind Speed Wind Dir Waves Ship Positions

Alexander Duff

Owner: Vane Line Bunkering, Philadelphia, PA. More information available from US FCC via Universal Licensing System and Coast Guard Vessel Documentation Center.

Last reported at 2017-Oct-20 16:01 UTC. Time now 2017-Oct-20 16:15 UTC.
Position N 36°48' W 076°18'.

Length 19 m; draft 2 m.

MMSI: 367314530.

Date/timePositionNaut miles runAvg speedWind from/ knotsBaromVisibWave heightAir tempDewpointWater temp
2017-Oct-20 16:01N 36°48' W 076°18'0 0.0
2017-Oct-20 15:31N 36°48' W 076°18'0 0.0
2017-Oct-20 15:01N 36°48' W 076°18'0 0.0
2017-Oct-20 14:01N 36°48' W 076°18'0 0.0
2017-Oct-20 13:31N 36°48' W 076°18'0 0.0
2017-Oct-20 13:01N 36°48' W 076°18'0 0.4
2017-Oct-20 12:31N 36°48' W 076°18'0 0.1
2017-Oct-20 12:01N 36°48' W 076°18'0 0.0
2017-Oct-20 11:31N 36°48' W 076°18'0 0.0
2017-Oct-20 11:01N 36°48' W 076°18'0 0.5
2017-Oct-20 10:31N 36°48' W 076°18'0 0.0
2017-Oct-20 10:01N 36°48' W 076°18'0 0.0
2017-Oct-20 09:31N 36°48' W 076°18'0 0.0
2017-Oct-20 09:01N 36°48' W 076°18'0 0.0
2017-Oct-20 08:31N 36°48' W 076°18'0 0.0
2017-Oct-20 08:01N 36°48' W 076°18'0 0.0
2017-Oct-20 07:31N 36°48' W 076°18'1 2.4
2017-Oct-20 07:01N 36°49' W 076°17'3 6.3
2017-Oct-20 06:30N 36°52' W 076°19'1 0.4
2017-Oct-20 04:21N 36°53' W 076°20'0 0.0
2017-Oct-20 03:57N 36°53' W 076°20'0 0.1
2017-Oct-20 03:11N 36°53' W 076°20'0 1.6
2017-Oct-20 03:00N 36°53' W 076°20'3 6.8
2017-Oct-20 02:31N 36°50' W 076°18'3 6.4
2017-Oct-20 02:01N 36°47' W 076°19'0 0.4
2017-Oct-20 01:31N 36°47' W 076°18'0 0.0
2017-Oct-20 01:01N 36°47' W 076°18'12 3.3
2017-Oct-19 21:19N 36°59' W 076°20'0 0.1
2017-Oct-19 20:54N 36°59' W 076°20'0 0.1
2017-Oct-19 20:19N 36°59' W 076°20'0 0.0
2017-Oct-19 19:46N 36°59' W 076°20'0 0.0
2017-Oct-19 19:26N 36°59' W 076°20'0 0.0
2017-Oct-19 18:34N 36°59' W 076°20'0 0.1
2017-Oct-19 18:30N 36°59' W 076°20'5 6.8
2017-Oct-19 17:44N 36°53' W 076°20'2 7.1
2017-Oct-19 17:31N 36°52' W 076°19'3 6.9
2017-Oct-19 17:01N 36°49' W 076°17'2 4.7
2017-Oct-19 16:31N 36°47' W 076°18'0 0.0
2017-Oct-19 16:01N 36°47' W 076°18'0 0.0
2017-Oct-19 15:31N 36°47' W 076°18'1 2.0
2017-Oct-19 15:01N 36°48' W 076°18'1 1.0
2017-Oct-19 14:31N 36°48' W 076°18'0 0.0
2017-Oct-19 14:01N 36°48' W 076°18'0 0.0
2017-Oct-19 13:31N 36°48' W 076°18'0 0.0
2017-Oct-19 13:01N 36°48' W 076°18'0 0.0
2017-Oct-19 12:31N 36°48' W 076°18'0 0.0
2017-Oct-19 12:01N 36°48' W 076°18'0 0.0
2017-Oct-19 11:31N 36°48' W 076°18'0 0.0
2017-Oct-19 11:01N 36°48' W 076°18'0 0.0
2017-Oct-19 10:31N 36°48' W 076°18'0 0.0
2017-Oct-19 10:01N 36°48' W 076°18'0 0.0
2017-Oct-19 09:31N 36°48' W 076°18'0 0.0
2017-Oct-19 09:01N 36°48' W 076°18'0 0.0
2017-Oct-19 08:31N 36°48' W 076°18'0 0.0
2017-Oct-19 08:01N 36°48' W 076°18'0 0.0
2017-Oct-19 07:31N 36°48' W 076°18'0 0.0
2017-Oct-19 07:01N 36°48' W 076°18'0 0.0
2017-Oct-19 06:31N 36°48' W 076°18'0 0.0
2017-Oct-19 06:01N 36°48' W 076°18'0 0.0
2017-Oct-19 05:31N 36°48' W 076°18'0 0.0
2017-Oct-19 05:01N 36°48' W 076°18'0 0.0
2017-Oct-19 04:30N 36°48' W 076°18'0 0.0
2017-Oct-19 04:01N 36°48' W 076°18'0 0.0
2017-Oct-19 03:31N 36°48' W 076°18'0 0.0
2017-Oct-19 03:01N 36°48' W 076°18'0 0.0
2017-Oct-19 02:31N 36°48' W 076°18'0 0.0
2017-Oct-19 02:01N 36°48' W 076°18'0 0.0
2017-Oct-19 01:31N 36°48' W 076°18'0 0.0
2017-Oct-19 01:01N 36°48' W 076°18'0 0.0
2017-Oct-19 00:31N 36°48' W 076°18'0 0.0
2017-Oct-19 00:01N 36°48' W 076°18'0 0.0
2017-Oct-18 23:31N 36°48' W 076°18'0 0.0
2017-Oct-18 23:01N 36°48' W 076°18'0 0.0
2017-Oct-18 22:31N 36°48' W 076°18'0 0.0
2017-Oct-18 22:01N 36°48' W 076°18'0 0.0
2017-Oct-18 21:31N 36°48' W 076°18'0 0.0
2017-Oct-18 21:01N 36°48' W 076°18'0 0.0
2017-Oct-18 20:31N 36°48' W 076°18'0 0.0
2017-Oct-18 20:01N 36°48' W 076°18'0 0.0
2017-Oct-18 19:31N 36°48' W 076°18'0 0.0
2017-Oct-18 19:01N 36°48' W 076°18'0 0.0
2017-Oct-18 18:31N 36°48' W 076°18'0 0.0
2017-Oct-18 18:01N 36°48' W 076°18'0 0.0
2017-Oct-18 17:31N 36°48' W 076°18'0 0.0
2017-Oct-18 17:00N 36°48' W 076°18'0 0.0
2017-Oct-18 16:31N 36°48' W 076°18'0 0.0
2017-Oct-18 16:00N 36°48' W 076°18'0 0.0
2017-Oct-18 15:31N 36°48' W 076°18'0 0.0
2017-Oct-18 15:00N 36°48' W 076°18'0 0.0
2017-Oct-18 14:00N 36°48' W 076°18'0 0.0
2017-Oct-18 13:30N 36°48' W 076°18'0 0.0
2017-Oct-18 12:59N 36°48' W 076°18'0 0.0
2017-Oct-18 12:28N 36°48' W 076°18'0 0.0
2017-Oct-18 12:00N 36°48' W 076°18'0 0.0
2017-Oct-18 11:31N 36°48' W 076°18'0 0.0
2017-Oct-18 11:00N 36°48' W 076°18'0 0.0
2017-Oct-18 10:30N 36°48' W 076°18'0 0.0
2017-Oct-18 10:00N 36°48' W 076°18'0 0.0
2017-Oct-18 09:23N 36°48' W 076°18'0 0.0
2017-Oct-18 08:57N 36°48' W 076°18'0 0.0
2017-Oct-18 08:30N 36°48' W 076°18'0 0.0
2017-Oct-18 07:57N 36°48' W 076°18'0 0.0
2017-Oct-18 07:30N 36°48' W 076°18'0 0.0
2017-Oct-18 07:00N 36°48' W 076°18'0 0.0
2017-Oct-18 06:30N 36°48' W 076°18'0 0.0
2017-Oct-18 06:01N 36°48' W 076°18'0 0.0
2017-Oct-18 05:30N 36°48' W 076°18'0 0.0
2017-Oct-18 04:59N 36°48' W 076°18'0 0.0
2017-Oct-18 04:30N 36°48' W 076°18'0 0.0
2017-Oct-18 03:59N 36°48' W 076°18'0 0.0
2017-Oct-18 03:25N 36°48' W 076°18'0 0.0
2017-Oct-18 03:00N 36°48' W 076°18'0 0.0
2017-Oct-18 02:30N 36°48' W 076°18'0 0.0
2017-Oct-18 02:00N 36°48' W 076°18'0 0.0
2017-Oct-18 01:29N 36°48' W 076°18'0 0.0
2017-Oct-18 00:56N 36°48' W 076°18'0 0.0
2017-Oct-18 00:26N 36°48' W 076°18'0 0.0
2017-Oct-17 23:57N 36°48' W 076°18'0 0.0
2017-Oct-17 23:30N 36°48' W 076°18'0 0.0
2017-Oct-17 23:00N 36°48' W 076°18'0 0.0
2017-Oct-17 22:30N 36°48' W 076°18'0 0.0
2017-Oct-17 22:01N 36°48' W 076°18'0 0.0
2017-Oct-17 21:30N 36°48' W 076°18'0 0.0
2017-Oct-17 20:58N 36°48' W 076°18'0 0.0
2017-Oct-17 20:31N 36°48' W 076°18'0 0.0
2017-Oct-17 20:00N 36°48' W 076°18'0 0.0
2017-Oct-17 19:26N 36°48' W 076°18'0 0.0
2017-Oct-17 18:58N 36°48' W 076°18'0 0.0
2017-Oct-17 18:27N 36°48' W 076°18'0 0.0
2017-Oct-17 17:59N 36°48' W 076°18'0 0.0
2017-Oct-17 17:27N 36°48' W 076°18'0 0.0
2017-Oct-17 16:56N 36°48' W 076°18'0 0.0
2017-Oct-17 16:29N 36°48' W 076°18'0 0.0
2017-Oct-17 15:59N 36°48' W 076°18'0 0.0
2017-Oct-17 15:30N 36°48' W 076°18'0 0.0
2017-Oct-17 14:57N 36°48' W 076°18'0 0.0
2017-Oct-17 14:30N 36°48' W 076°18'0 0.1
2017-Oct-17 14:00N 36°48' W 076°18'0 0.1
2017-Oct-17 13:30N 36°48' W 076°18'0 0.0
2017-Oct-17 13:00N 36°48' W 076°18'0 0.0
2017-Oct-17 12:30N 36°48' W 076°18'0 0.0
2017-Oct-17 12:00N 36°48' W 076°18'0 0.0
2017-Oct-17 11:29N 36°48' W 076°18'0 0.0
2017-Oct-17 11:00N 36°48' W 076°18'0 0.0
2017-Oct-17 10:30N 36°48' W 076°18'0 0.0
2017-Oct-17 10:00N 36°48' W 076°18'0 0.0
2017-Oct-17 09:30N 36°48' W 076°18'0 0.0
2017-Oct-17 09:00N 36°48' W 076°18'0 0.0
2017-Oct-17 08:28N 36°48' W 076°18'0 0.0
2017-Oct-17 08:01N 36°48' W 076°18'0 0.0
2017-Oct-17 07:30N 36°48' W 076°18'0 0.0
2017-Oct-17 07:00N 36°48' W 076°18'0 0.0
2017-Oct-17 06:31N 36°48' W 076°18'0 0.0
2017-Oct-17 06:00N 36°48' W 076°18'0 0.0
2017-Oct-17 05:31N 36°48' W 076°18'0 0.0
2017-Oct-17 05:01N 36°48' W 076°18'0 0.0
2017-Oct-17 04:30N 36°48' W 076°18'0 0.0
2017-Oct-17 04:00N 36°48' W 076°18'0 0.0
2017-Oct-17 03:31N 36°48' W 076°18'0 0.0
2017-Oct-17 03:01N 36°48' W 076°18'0 0.0
2017-Oct-17 02:31N 36°48' W 076°18'0 0.0
2017-Oct-17 02:01N 36°48' W 076°18'0 0.0
2017-Oct-17 01:31N 36°48' W 076°18'0 0.0
2017-Oct-17 01:00N 36°48' W 076°18'0 0.0
2017-Oct-17 00:31N 36°48' W 076°18'0 0.0
2017-Oct-17 00:01N 36°48' W 076°18'0 0.0
2017-Oct-16 23:30N 36°48' W 076°18'0 0.0
2017-Oct-16 23:00N 36°48' W 076°18'0 0.0
2017-Oct-16 22:31N 36°48' W 076°18'0 0.0
2017-Oct-16 22:01N 36°48' W 076°18'0 0.0
2017-Oct-16 21:31N 36°48' W 076°18'0 0.0
2017-Oct-16 21:01N 36°48' W 076°18'0 0.0
2017-Oct-16 20:31N 36°48' W 076°18'0 0.0
2017-Oct-16 20:01N 36°48' W 076°18'0 0.0
2017-Oct-16 19:30N 36°48' W 076°18'0 0.0
2017-Oct-16 19:01N 36°48' W 076°18'0 0.0
2017-Oct-16 18:31N 36°48' W 076°18'0 0.0
2017-Oct-16 18:01N 36°48' W 076°18'0 0.0
2017-Oct-16 17:31N 36°48' W 076°18'0 0.0
2017-Oct-16 17:01N 36°48' W 076°18'0 0.0
2017-Oct-16 16:30N 36°48' W 076°18'0 0.0
2017-Oct-16 16:00N 36°48' W 076°18'0 0.0
2017-Oct-16 15:30N 36°48' W 076°18'0 0.0
2017-Oct-16 15:00N 36°48' W 076°18'0 0.0
2017-Oct-16 14:01N 36°48' W 076°18'0 0.0
2017-Oct-16 13:31N 36°48' W 076°18'0 0.0
2017-Oct-16 13:01N 36°48' W 076°18'0 0.0
2017-Oct-16 12:30N 36°48' W 076°18'0 0.0
2017-Oct-16 12:01N 36°48' W 076°18'0 0.0
2017-Oct-16 11:31N 36°48' W 076°18'0 0.0
2017-Oct-16 11:01N 36°48' W 076°18'0 0.0
2017-Oct-16 10:31N 36°48' W 076°18'0 0.0
2017-Oct-16 10:00N 36°48' W 076°18'0 0.0
2017-Oct-16 09:30N 36°48' W 076°18'0 0.0
2017-Oct-16 09:00N 36°48' W 076°18'0 0.0
2017-Oct-16 08:31N 36°48' W 076°18'0 0.0
2017-Oct-16 08:01N 36°48' W 076°18'0 0.0
2017-Oct-16 07:30N 36°48' W 076°18'0 0.0
2017-Oct-16 07:01N 36°48' W 076°18'0 0.0
2017-Oct-16 06:31N 36°48' W 076°18'0 0.0
2017-Oct-16 06:01N 36°48' W 076°18'0 0.0
2017-Oct-16 05:30N 36°48' W 076°18'0 0.0
2017-Oct-16 05:01N 36°48' W 076°18'0 0.0
2017-Oct-16 04:31N 36°48' W 076°18'0 0.0
2017-Oct-16 04:01N 36°48' W 076°18'0 0.0
2017-Oct-16 03:31N 36°48' W 076°18'0 0.0
2017-Oct-16 03:00N 36°48' W 076°18'0 0.0
2017-Oct-16 02:31N 36°48' W 076°18'0 0.0
2017-Oct-16 02:01N 36°48' W 076°18'0 0.0
2017-Oct-16 01:31N 36°48' W 076°18'0 0.0
2017-Oct-16 01:01N 36°48' W 076°18'0 0.0
2017-Oct-16 00:31N 36°48' W 076°18'0 0.0
2017-Oct-16 00:01N 36°48' W 076°18'0 0.0
2017-Oct-15 23:31N 36°48' W 076°18'0 0.0
2017-Oct-15 23:01N 36°48' W 076°18'0 0.0
2017-Oct-15 22:31N 36°48' W 076°18'0 0.0
2017-Oct-15 22:01N 36°48' W 076°18'0 0.0
2017-Oct-15 21:31N 36°48' W 076°18'0 0.0
2017-Oct-15 21:01N 36°48' W 076°18'0 0.0
2017-Oct-15 20:31N 36°48' W 076°18'0 0.0
2017-Oct-15 20:00N 36°48' W 076°18'0 0.0
2017-Oct-15 19:30N 36°48' W 076°18'0 0.0
2017-Oct-15 15:47N 36°48' W 076°18'0 0.0
2017-Oct-15 15:30N 36°48' W 076°18'0 0.0
2017-Oct-15 15:00N 36°48' W 076°18'0 0.0
2017-Oct-15 14:00N 36°48' W 076°18'0 0.0
2017-Oct-15 13:31N 36°48' W 076°18'0 0.0
2017-Oct-15 06:39N 36°48' W 076°18'0 0.0
2017-Oct-15 06:31N 36°48' W 076°18'0 0.0
2017-Oct-15 06:01N 36°48' W 076°18'0 0.0
2017-Oct-15 05:31N 36°48' W 076°18'0 0.0
2017-Oct-15 05:00N 36°48' W 076°18'0 0.0
2017-Oct-15 04:30N 36°48' W 076°18'0 0.0
2017-Oct-15 04:00N 36°48' W 076°18'0 0.0
2017-Oct-15 03:31N 36°48' W 076°18'0 0.0
2017-Oct-15 03:01N 36°48' W 076°18'0 0.0
2017-Oct-15 02:31N 36°48' W 076°18'0 0.0
2017-Oct-15 02:01N 36°48' W 076°18'0 0.0
2017-Oct-15 01:30N 36°48' W 076°18'0 0.0
2017-Oct-15 01:01N 36°48' W 076°18'0 0.0
2017-Oct-15 00:30N 36°48' W 076°18'0 0.0
2017-Oct-15 00:01N 36°48' W 076°18'0 0.0
2017-Oct-14 21:34N 36°48' W 076°18'0 0.0
2017-Oct-14 21:30N 36°48' W 076°18'0 0.0
2017-Oct-14 21:01N 36°48' W 076°18'0 0.0
2017-Oct-14 20:31N 36°48' W 076°18'0 0.0
2017-Oct-14 20:01N 36°48' W 076°18'0 0.0
2017-Oct-14 19:31N 36°48' W 076°18'0 0.0
2017-Oct-14 19:00N 36°48' W 076°18'0 0.0
2017-Oct-14 18:31N 36°48' W 076°18'0 0.0
2017-Oct-14 18:01N 36°48' W 076°18'0 0.0
2017-Oct-14 17:30N 36°48' W 076°18'0 0.0
2017-Oct-14 17:01N 36°48' W 076°18'0 0.0
2017-Oct-14 16:31N 36°48' W 076°18'0 0.0
2017-Oct-14 16:01N 36°48' W 076°18'0 0.0
2017-Oct-14 15:30N 36°48' W 076°18'0 0.0
2017-Oct-14 15:01N 36°48' W 076°18'0 0.0
2017-Oct-14 14:31N 36°48' W 076°18'0 0.0
2017-Oct-14 14:01N 36°48' W 076°18'0 0.0
2017-Oct-14 13:30N 36°48' W 076°18'0 0.0
2017-Oct-14 13:00N 36°48' W 076°18'0 0.0
2017-Oct-14 12:30N 36°48' W 076°18'0 0.0
2017-Oct-14 12:01N 36°48' W 076°18'0 0.0
2017-Oct-14 11:31N 36°48' W 076°18'0 0.0
2017-Oct-14 11:00N 36°48' W 076°18'0 0.0
2017-Oct-14 10:31N 36°48' W 076°18'0 0.0
2017-Oct-14 10:00N 36°48' W 076°18'0 0.0
2017-Oct-14 09:31N 36°48' W 076°18'0 0.0
2017-Oct-14 09:01N 36°48' W 076°18'0 0.0
2017-Oct-14 08:30N 36°48' W 076°18'0 0.0
2017-Oct-14 08:01N 36°48' W 076°18'0 0.0
2017-Oct-14 07:31N 36°48' W 076°18'0 0.0
2017-Oct-14 07:01N 36°48' W 076°18'0 0.0
2017-Oct-14 06:31N 36°48' W 076°18'0 0.0
2017-Oct-14 06:00N 36°48' W 076°18'0 0.0
2017-Oct-14 05:31N 36°48' W 076°18'0 0.0
2017-Oct-14 05:01N 36°48' W 076°18'0 0.0
2017-Oct-14 04:31N 36°48' W 076°18'0 0.0
2017-Oct-14 04:00N 36°48' W 076°18'0 0.0
2017-Oct-14 03:30N 36°48' W 076°18'0 0.0
2017-Oct-14 03:01N 36°48' W 076°18'0 0.0
2017-Oct-14 02:31N 36°48' W 076°18'0 0.0
2017-Oct-14 02:01N 36°48' W 076°18'0 0.0
2017-Oct-14 01:30N 36°48' W 076°18'0 0.0
2017-Oct-14 01:00N 36°48' W 076°18'0 0.0
2017-Oct-14 00:30N 36°48' W 076°18'0 0.0
2017-Oct-14 00:00N 36°48' W 076°18'0 0.0
2017-Oct-13 23:30N 36°48' W 076°18'0 0.0
2017-Oct-13 23:00N 36°48' W 076°18'0 0.0
2017-Oct-13 22:30N 36°48' W 076°18'0 0.0
2017-Oct-13 22:00N 36°48' W 076°18'0 0.0
2017-Oct-13 21:31N 36°48' W 076°18'0 0.0
2017-Oct-13 21:01N 36°48' W 076°18'0 0.0
2017-Oct-13 20:30N 36°48' W 076°18'0 0.0
2017-Oct-13 20:01N 36°48' W 076°18'0 0.0
2017-Oct-13 19:30N 36°48' W 076°18'0 0.0
2017-Oct-13 19:00N 36°48' W 076°18'0 0.0
2017-Oct-13 18:31N 36°48' W 076°18'0 0.0
2017-Oct-13 18:01N 36°48' W 076°18'0 0.0
2017-Oct-13 17:30N 36°48' W 076°18'0 0.0
2017-Oct-13 17:01N 36°48' W 076°18'0 0.0
2017-Oct-13 16:30N 36°48' W 076°18'0 0.0
2017-Oct-13 16:01N 36°48' W 076°18'0 0.0
2017-Oct-13 15:30N 36°48' W 076°18'0 0.0
2017-Oct-13 15:00N 36°48' W 076°18'0 0.0
2017-Oct-13 14:31N 36°48' W 076°18'0 0.0
2017-Oct-13 14:01N 36°48' W 076°18'0 0.0
2017-Oct-13 13:30N 36°48' W 076°18'0 0.0
2017-Oct-13 13:01N 36°48' W 076°18'0 0.0
2017-Oct-13 12:31N 36°48' W 076°18'0 0.0
2017-Oct-13 12:01N 36°48' W 076°18'0 0.0
2017-Oct-13 11:30N 36°48' W 076°18'0 0.0
2017-Oct-13 11:01N 36°48' W 076°18'0 0.0
2017-Oct-13 10:30N 36°48' W 076°18'0 0.0
2017-Oct-13 10:01N 36°48' W 076°18'0 0.0
2017-Oct-13 09:31N 36°48' W 076°18'0 0.0
2017-Oct-13 09:00N 36°48' W 076°18'0 0.0
2017-Oct-13 08:31N 36°48' W 076°18'0 0.0
2017-Oct-13 08:01N 36°48' W 076°18'0 0.0
2017-Oct-13 07:31N 36°48' W 076°18'0 0.0
2017-Oct-13 07:01N 36°48' W 076°18'0 0.0
2017-Oct-13 06:30N 36°48' W 076°18'0 0.0
2017-Oct-13 06:01N 36°48' W 076°18'0 0.0
2017-Oct-13 05:31N 36°48' W 076°18'0 0.0
2017-Oct-13 05:00N 36°48' W 076°18'0 0.0
2017-Oct-13 04:30N 36°48' W 076°18'0 0.0
2017-Oct-13 04:00N 36°48' W 076°18'0 0.0
2017-Oct-13 03:31N 36°48' W 076°18'0 0.0
2017-Oct-13 03:00N 36°48' W 076°18'0 0.0
2017-Oct-13 02:31N 36°48' W 076°18'0 0.0
2017-Oct-13 02:00N 36°48' W 076°18'0 0.0
2017-Oct-13 01:31N 36°48' W 076°18'0 0.0
2017-Oct-13 01:01N 36°48' W 076°18'0 0.0
2017-Oct-13 00:31N 36°48' W 076°18'0 0.0
2017-Oct-13 00:00N 36°48' W 076°18'0 0.0
2017-Oct-12 23:30N 36°48' W 076°18'0 0.0
2017-Oct-12 23:01N 36°48' W 076°18'0 0.0
2017-Oct-12 22:30N 36°48' W 076°18'0 0.0
2017-Oct-12 22:01N 36°48' W 076°18'0 0.0
2017-Oct-12 21:30N 36°48' W 076°18'0 0.0
2017-Oct-12 21:01N 36°48' W 076°18'0 0.0
2017-Oct-12 20:31N 36°48' W 076°18'0 0.0
2017-Oct-12 20:01N 36°48' W 076°18'0 0.0
2017-Oct-12 19:30N 36°48' W 076°18'0 0.0
2017-Oct-12 19:01N 36°48' W 076°18'0 0.0
2017-Oct-12 18:31N 36°48' W 076°18'0 0.0
2017-Oct-12 18:01N 36°48' W 076°18'0 0.0
2017-Oct-12 17:31N 36°48' W 076°18'0 0.0
2017-Oct-12 17:01N 36°48' W 076°18'0 0.0
2017-Oct-12 16:31N 36°48' W 076°18'0 0.0
2017-Oct-12 16:01N 36°48' W 076°18'2 4.9
2017-Oct-12 15:31N 36°50' W 076°18'4 7.2
2017-Oct-12 15:00N 36°53' W 076°20'1 0.1
2017-Oct-12 09:28N 36°53' W 076°20'5 0.5
2017-Oct-11 23:06N 36°48' W 076°18'0 0.1
2017-Oct-11 23:00N 36°48' W 076°18'0 0.0
2017-Oct-11 22:30N 36°48' W 076°18'0 0.0
2017-Oct-11 22:00N 36°48' W 076°18'0 0.0
2017-Oct-11 21:30N 36°48' W 076°18'0 0.0
2017-Oct-11 20:58N 36°48' W 076°18'0 0.0
2017-Oct-11 20:30N 36°48' W 076°18'0 0.0
2017-Oct-11 20:01N 36°48' W 076°18'0 0.0
2017-Oct-11 19:30N 36°48' W 076°18'0 0.0
2017-Oct-11 19:00N 36°48' W 076°18'0 0.0
2017-Oct-11 18:30N 36°48' W 076°18'0 0.0
2017-Oct-11 17:58N 36°48' W 076°18'0 0.0
2017-Oct-11 17:30N 36°48' W 076°18'0 0.0
2017-Oct-11 17:00N 36°48' W 076°18'1 0.1
2017-Oct-11 00:00N 36°47' W 076°18'0 0.8
2017-Oct-10 23:30N 36°47' W 076°18'1 2.2
2017-Oct-10 23:00N 36°48' W 076°18'0 0.0
2017-Oct-10 22:30N 36°48' W 076°18'0 0.0
2017-Oct-10 22:00N 36°48' W 076°18'0 0.0
2017-Oct-10 21:30N 36°48' W 076°18'0 0.0
2017-Oct-10 21:00N 36°48' W 076°18'0 0.0
2017-Oct-10 20:30N 36°48' W 076°18'0 0.8
2017-Oct-10 20:00N 36°48' W 076°17'3 6.1
2017-Oct-10 19:30N 36°51' W 076°19'  
Track history (hours):
 
Tides and Currents Weather Stations Pressure Air Temp Water Temp Dewpoint Dewpoint Depression Visibility Wind Speed Wind Dir Waves Ship Positions

Alexander Duff

Owner: Vane Line Bunkering, Philadelphia, PA. More information available from US FCC via Universal Licensing System and Coast Guard Vessel Documentation Center.

Last reported at 2017-Oct-20 16:01 UTC. Time now 2017-Oct-20 16:15 UTC.
Position N 36°48' W 076°18'.

Length 19 m; draft 2 m.

MMSI: 367314530.

Date/timePositionNaut miles runAvg speedWind from/ knotsBaromVisibWave heightAir tempDewpointWater temp
2017-Oct-20 16:01N 36°48' W 076°18'0 0.0
2017-Oct-20 15:31N 36°48' W 076°18'0 0.0
2017-Oct-20 15:01N 36°48' W 076°18'0 0.0
2017-Oct-20 14:01N 36°48' W 076°18'0 0.0
2017-Oct-20 13:31N 36°48' W 076°18'0 0.0
2017-Oct-20 13:01N 36°48' W 076°18'0 0.4
2017-Oct-20 12:31N 36°48' W 076°18'0 0.1
2017-Oct-20 12:01N 36°48' W 076°18'0 0.0
2017-Oct-20 11:31N 36°48' W 076°18'0 0.0
2017-Oct-20 11:01N 36°48' W 076°18'0 0.5
2017-Oct-20 10:31N 36°48' W 076°18'0 0.0
2017-Oct-20 10:01N 36°48' W 076°18'0 0.0
2017-Oct-20 09:31N 36°48' W 076°18'0 0.0
2017-Oct-20 09:01N 36°48' W 076°18'0 0.0
2017-Oct-20 08:31N 36°48' W 076°18'0 0.0
2017-Oct-20 08:01N 36°48' W 076°18'0 0.0
2017-Oct-20 07:31N 36°48' W 076°18'1 2.4
2017-Oct-20 07:01N 36°49' W 076°17'3 6.3
2017-Oct-20 06:30N 36°52' W 076°19'1 0.4
2017-Oct-20 04:21N 36°53' W 076°20'0 0.0
2017-Oct-20 03:57N 36°53' W 076°20'0 0.1
2017-Oct-20 03:11N 36°53' W 076°20'0 1.6
2017-Oct-20 03:00N 36°53' W 076°20'3 6.8
2017-Oct-20 02:31N 36°50' W 076°18'3 6.4
2017-Oct-20 02:01N 36°47' W 076°19'0 0.4
2017-Oct-20 01:31N 36°47' W 076°18'0 0.0
2017-Oct-20 01:01N 36°47' W 076°18'12 3.3
2017-Oct-19 21:19N 36°59' W 076°20'0 0.1
2017-Oct-19 20:54N 36°59' W 076°20'0 0.1
2017-Oct-19 20:19N 36°59' W 076°20'0 0.0
2017-Oct-19 19:46N 36°59' W 076°20'0 0.0
2017-Oct-19 19:26N 36°59' W 076°20'0 0.0
2017-Oct-19 18:34N 36°59' W 076°20'0 0.1
2017-Oct-19 18:30N 36°59' W 076°20'5 6.8
2017-Oct-19 17:44N 36°53' W 076°20'2 7.1
2017-Oct-19 17:31N 36°52' W 076°19'3 6.9
2017-Oct-19 17:01N 36°49' W 076°17'2 4.7
2017-Oct-19 16:31N 36°47' W 076°18'0 0.0
2017-Oct-19 16:01N 36°47' W 076°18'0 0.0
2017-Oct-19 15:31N 36°47' W 076°18'1 2.0
2017-Oct-19 15:01N 36°48' W 076°18'1 1.0
2017-Oct-19 14:31N 36°48' W 076°18'0 0.0
2017-Oct-19 14:01N 36°48' W 076°18'0 0.0
2017-Oct-19 13:31N 36°48' W 076°18'0 0.0
2017-Oct-19 13:01N 36°48' W 076°18'0 0.0
2017-Oct-19 12:31N 36°48' W 076°18'0 0.0
2017-Oct-19 12:01N 36°48' W 076°18'0 0.0
2017-Oct-19 11:31N 36°48' W 076°18'0 0.0
2017-Oct-19 11:01N 36°48' W 076°18'0 0.0
2017-Oct-19 10:31N 36°48' W 076°18'0 0.0
2017-Oct-19 10:01N 36°48' W 076°18'0 0.0
2017-Oct-19 09:31N 36°48' W 076°18'0 0.0
2017-Oct-19 09:01N 36°48' W 076°18'0 0.0
2017-Oct-19 08:31N 36°48' W 076°18'0 0.0
2017-Oct-19 08:01N 36°48' W 076°18'0 0.0
2017-Oct-19 07:31N 36°48' W 076°18'0 0.0
2017-Oct-19 07:01N 36°48' W 076°18'0 0.0
2017-Oct-19 06:31N 36°48' W 076°18'0 0.0
2017-Oct-19 06:01N 36°48' W 076°18'0 0.0
2017-Oct-19 05:31N 36°48' W 076°18'0 0.0
2017-Oct-19 05:01N 36°48' W 076°18'0 0.0
2017-Oct-19 04:30N 36°48' W 076°18'0 0.0
2017-Oct-19 04:01N 36°48' W 076°18'0 0.0
2017-Oct-19 03:31N 36°48' W 076°18'0 0.0
2017-Oct-19 03:01N 36°48' W 076°18'0 0.0
2017-Oct-19 02:31N 36°48' W 076°18'0 0.0
2017-Oct-19 02:01N 36°48' W 076°18'0 0.0
2017-Oct-19 01:31N 36°48' W 076°18'0 0.0
2017-Oct-19 01:01N 36°48' W 076°18'0 0.0
2017-Oct-19 00:31N 36°48' W 076°18'0 0.0
2017-Oct-19 00:01N 36°48' W 076°18'0 0.0
2017-Oct-18 23:31N 36°48' W 076°18'0 0.0
2017-Oct-18 23:01N 36°48' W 076°18'0 0.0
2017-Oct-18 22:31N 36°48' W 076°18'0 0.0
2017-Oct-18 22:01N 36°48' W 076°18'0 0.0
2017-Oct-18 21:31N 36°48' W 076°18'0 0.0
2017-Oct-18 21:01N 36°48' W 076°18'0 0.0
2017-Oct-18 20:31N 36°48' W 076°18'0 0.0
2017-Oct-18 20:01N 36°48' W 076°18'0 0.0
2017-Oct-18 19:31N 36°48' W 076°18'0 0.0
2017-Oct-18 19:01N 36°48' W 076°18'0 0.0
2017-Oct-18 18:31N 36°48' W 076°18'0 0.0
2017-Oct-18 18:01N 36°48' W 076°18'0 0.0
2017-Oct-18 17:31N 36°48' W 076°18'0 0.0
2017-Oct-18 17:00N 36°48' W 076°18'0 0.0
2017-Oct-18 16:31N 36°48' W 076°18'0 0.0
2017-Oct-18 16:00N 36°48' W 076°18'0 0.0
2017-Oct-18 15:31N 36°48' W 076°18'0 0.0
2017-Oct-18 15:00N 36°48' W 076°18'0 0.0
2017-Oct-18 14:00N 36°48' W 076°18'0 0.0
2017-Oct-18 13:30N 36°48' W 076°18'0 0.0
2017-Oct-18 12:59N 36°48' W 076°18'0 0.0
2017-Oct-18 12:28N 36°48' W 076°18'0 0.0
2017-Oct-18 12:00N 36°48' W 076°18'0 0.0
2017-Oct-18 11:31N 36°48' W 076°18'0 0.0
2017-Oct-18 11:00N 36°48' W 076°18'0 0.0
2017-Oct-18 10:30N 36°48' W 076°18'0 0.0
2017-Oct-18 10:00N 36°48' W 076°18'0 0.0
2017-Oct-18 09:23N 36°48' W 076°18'0 0.0
2017-Oct-18 08:57N 36°48' W 076°18'0 0.0
2017-Oct-18 08:30N 36°48' W 076°18'0 0.0
2017-Oct-18 07:57N 36°48' W 076°18'0 0.0
2017-Oct-18 07:30N 36°48' W 076°18'0 0.0
2017-Oct-18 07:00N 36°48' W 076°18'0 0.0
2017-Oct-18 06:30N 36°48' W 076°18'0 0.0
2017-Oct-18 06:01N 36°48' W 076°18'0 0.0
2017-Oct-18 05:30N 36°48' W 076°18'0 0.0
2017-Oct-18 04:59N 36°48' W 076°18'0 0.0
2017-Oct-18 04:30N 36°48' W 076°18'0 0.0
2017-Oct-18 03:59N 36°48' W 076°18'0 0.0
2017-Oct-18 03:25N 36°48' W 076°18'0 0.0
2017-Oct-18 03:00N 36°48' W 076°18'0 0.0
2017-Oct-18 02:30N 36°48' W 076°18'0 0.0
2017-Oct-18 02:00N 36°48' W 076°18'0 0.0
2017-Oct-18 01:29N 36°48' W 076°18'0 0.0
2017-Oct-18 00:56N 36°48' W 076°18'0 0.0
2017-Oct-18 00:26N 36°48' W 076°18'0 0.0
2017-Oct-17 23:57N 36°48' W 076°18'0 0.0
2017-Oct-17 23:30N 36°48' W 076°18'0 0.0
2017-Oct-17 23:00N 36°48' W 076°18'0 0.0
2017-Oct-17 22:30N 36°48' W 076°18'0 0.0
2017-Oct-17 22:01N 36°48' W 076°18'0 0.0
2017-Oct-17 21:30N 36°48' W 076°18'0 0.0
2017-Oct-17 20:58N 36°48' W 076°18'0 0.0
2017-Oct-17 20:31N 36°48' W 076°18'0 0.0
2017-Oct-17 20:00N 36°48' W 076°18'0 0.0
2017-Oct-17 19:26N 36°48' W 076°18'0 0.0
2017-Oct-17 18:58N 36°48' W 076°18'0 0.0
2017-Oct-17 18:27N 36°48' W 076°18'0 0.0
2017-Oct-17 17:59N 36°48' W 076°18'0 0.0
2017-Oct-17 17:27N 36°48' W 076°18'0 0.0
2017-Oct-17 16:56N 36°48' W 076°18'0 0.0
2017-Oct-17 16:29N 36°48' W 076°18'0 0.0
2017-Oct-17 15:59N 36°48' W 076°18'0 0.0
2017-Oct-17 15:30N 36°48' W 076°18'0 0.0
2017-Oct-17 14:57N 36°48' W 076°18'0 0.0
2017-Oct-17 14:30N 36°48' W 076°18'0 0.1
2017-Oct-17 14:00N 36°48' W 076°18'0 0.1
2017-Oct-17 13:30N 36°48' W 076°18'0 0.0
2017-Oct-17 13:00N 36°48' W 076°18'0 0.0
2017-Oct-17 12:30N 36°48' W 076°18'0 0.0
2017-Oct-17 12:00N 36°48' W 076°18'0 0.0
2017-Oct-17 11:29N 36°48' W 076°18'0 0.0
2017-Oct-17 11:00N 36°48' W 076°18'0 0.0
2017-Oct-17 10:30N 36°48' W 076°18'0 0.0
2017-Oct-17 10:00N 36°48' W 076°18'0 0.0
2017-Oct-17 09:30N 36°48' W 076°18'0 0.0
2017-Oct-17 09:00N 36°48' W 076°18'0 0.0
2017-Oct-17 08:28N 36°48' W 076°18'0 0.0
2017-Oct-17 08:01N 36°48' W 076°18'0 0.0
2017-Oct-17 07:30N 36°48' W 076°18'0 0.0
2017-Oct-17 07:00N 36°48' W 076°18'0 0.0
2017-Oct-17 06:31N 36°48' W 076°18'0 0.0
2017-Oct-17 06:00N 36°48' W 076°18'0 0.0
2017-Oct-17 05:31N 36°48' W 076°18'0 0.0
2017-Oct-17 05:01N 36°48' W 076°18'0 0.0
2017-Oct-17 04:30N 36°48' W 076°18'0 0.0
2017-Oct-17 04:00N 36°48' W 076°18'0 0.0
2017-Oct-17 03:31N 36°48' W 076°18'0 0.0
2017-Oct-17 03:01N 36°48' W 076°18'0 0.0
2017-Oct-17 02:31N 36°48' W 076°18'0 0.0
2017-Oct-17 02:01N 36°48' W 076°18'0 0.0
2017-Oct-17 01:31N 36°48' W 076°18'0 0.0
2017-Oct-17 01:00N 36°48' W 076°18'0 0.0
2017-Oct-17 00:31N 36°48' W 076°18'0 0.0
2017-Oct-17 00:01N 36°48' W 076°18'0 0.0
2017-Oct-16 23:30N 36°48' W 076°18'0 0.0
2017-Oct-16 23:00N 36°48' W 076°18'0 0.0
2017-Oct-16 22:31N 36°48' W 076°18'0 0.0
2017-Oct-16 22:01N 36°48' W 076°18'0 0.0
2017-Oct-16 21:31N 36°48' W 076°18'0 0.0
2017-Oct-16 21:01N 36°48' W 076°18'0 0.0
2017-Oct-16 20:31N 36°48' W 076°18'0 0.0
2017-Oct-16 20:01N 36°48' W 076°18'0 0.0
2017-Oct-16 19:30N 36°48' W 076°18'0 0.0
2017-Oct-16 19:01N 36°48' W 076°18'0 0.0
2017-Oct-16 18:31N 36°48' W 076°18'0 0.0
2017-Oct-16 18:01N 36°48' W 076°18'0 0.0
2017-Oct-16 17:31N 36°48' W 076°18'0 0.0
2017-Oct-16 17:01N 36°48' W 076°18'0 0.0
2017-Oct-16 16:30N 36°48' W 076°18'0 0.0
2017-Oct-16 16:00N 36°48' W 076°18'0 0.0
2017-Oct-16 15:30N 36°48' W 076°18'0 0.0
2017-Oct-16 15:00N 36°48' W 076°18'0 0.0
2017-Oct-16 14:01N 36°48' W 076°18'0 0.0
2017-Oct-16 13:31N 36°48' W 076°18'0 0.0
2017-Oct-16 13:01N 36°48' W 076°18'0 0.0
2017-Oct-16 12:30N 36°48' W 076°18'0 0.0
2017-Oct-16 12:01N 36°48' W 076°18'0 0.0
2017-Oct-16 11:31N 36°48' W 076°18'0 0.0
2017-Oct-16 11:01N 36°48' W 076°18'0 0.0
2017-Oct-16 10:31N 36°48' W 076°18'0 0.0
2017-Oct-16 10:00N 36°48' W 076°18'0 0.0
2017-Oct-16 09:30N 36°48' W 076°18'0 0.0
2017-Oct-16 09:00N 36°48' W 076°18'0 0.0
2017-Oct-16 08:31N 36°48' W 076°18'0 0.0
2017-Oct-16 08:01N 36°48' W 076°18'0 0.0
2017-Oct-16 07:30N 36°48' W 076°18'0 0.0
2017-Oct-16 07:01N 36°48' W 076°18'0 0.0
2017-Oct-16 06:31N 36°48' W 076°18'0 0.0
2017-Oct-16 06:01N 36°48' W 076°18'0 0.0
2017-Oct-16 05:30N 36°48' W 076°18'0 0.0
2017-Oct-16 05:01N 36°48' W 076°18'0 0.0
2017-Oct-16 04:31N 36°48' W 076°18'0 0.0
2017-Oct-16 04:01N 36°48' W 076°18'0 0.0
2017-Oct-16 03:31N 36°48' W 076°18'0 0.0
2017-Oct-16 03:00N 36°48' W 076°18'0 0.0
2017-Oct-16 02:31N 36°48' W 076°18'0 0.0
2017-Oct-16 02:01N 36°48' W 076°18'0 0.0
2017-Oct-16 01:31N 36°48' W 076°18'0 0.0
2017-Oct-16 01:01N 36°48' W 076°18'0 0.0
2017-Oct-16 00:31N 36°48' W 076°18'0 0.0
2017-Oct-16 00:01N 36°48' W 076°18'0 0.0
2017-Oct-15 23:31N 36°48' W 076°18'0 0.0
2017-Oct-15 23:01N 36°48' W 076°18'0 0.0
2017-Oct-15 22:31N 36°48' W 076°18'0 0.0
2017-Oct-15 22:01N 36°48' W 076°18'0 0.0
2017-Oct-15 21:31N 36°48' W 076°18'0 0.0
2017-Oct-15 21:01N 36°48' W 076°18'0 0.0
2017-Oct-15 20:31N 36°48' W 076°18'0 0.0
2017-Oct-15 20:00N 36°48' W 076°18'0 0.0
2017-Oct-15 19:30N 36°48' W 076°18'0 0.0
2017-Oct-15 15:47N 36°48' W 076°18'0 0.0
2017-Oct-15 15:30N 36°48' W 076°18'0 0.0
2017-Oct-15 15:00N 36°48' W 076°18'0 0.0
2017-Oct-15 14:00N 36°48' W 076°18'0 0.0
2017-Oct-15 13:31N 36°48' W 076°18'0 0.0
2017-Oct-15 06:39N 36°48' W 076°18'0 0.0
2017-Oct-15 06:31N 36°48' W 076°18'0 0.0
2017-Oct-15 06:01N 36°48' W 076°18'0 0.0
2017-Oct-15 05:31N 36°48' W 076°18'0 0.0
2017-Oct-15 05:00N 36°48' W 076°18'0 0.0
2017-Oct-15 04:30N 36°48' W 076°18'0 0.0
2017-Oct-15 04:00N 36°48' W 076°18'0 0.0
2017-Oct-15 03:31N 36°48' W 076°18'0 0.0
2017-Oct-15 03:01N 36°48' W 076°18'0 0.0
2017-Oct-15 02:31N 36°48' W 076°18'0 0.0
2017-Oct-15 02:01N 36°48' W 076°18'0 0.0
2017-Oct-15 01:30N 36°48' W 076°18'0 0.0
2017-Oct-15 01:01N 36°48' W 076°18'0 0.0
2017-Oct-15 00:30N 36°48' W 076°18'0 0.0
2017-Oct-15 00:01N 36°48' W 076°18'0 0.0
2017-Oct-14 21:34N 36°48' W 076°18'0 0.0
2017-Oct-14 21:30N 36°48' W 076°18'0 0.0
2017-Oct-14 21:01N 36°48' W 076°18'0 0.0
2017-Oct-14 20:31N 36°48' W 076°18'0 0.0
2017-Oct-14 20:01N 36°48' W 076°18'0 0.0
2017-Oct-14 19:31N 36°48' W 076°18'0 0.0
2017-Oct-14 19:00N 36°48' W 076°18'0 0.0
2017-Oct-14 18:31N 36°48' W 076°18'0 0.0
2017-Oct-14 18:01N 36°48' W 076°18'0 0.0
2017-Oct-14 17:30N 36°48' W 076°18'0 0.0
2017-Oct-14 17:01N 36°48' W 076°18'0 0.0
2017-Oct-14 16:31N 36°48' W 076°18'0 0.0
2017-Oct-14 16:01N 36°48' W 076°18'0 0.0
2017-Oct-14 15:30N 36°48' W 076°18'0 0.0
2017-Oct-14 15:01N 36°48' W 076°18'0 0.0
2017-Oct-14 14:31N 36°48' W 076°18'0 0.0
2017-Oct-14 14:01N 36°48' W 076°18'0 0.0
2017-Oct-14 13:30N 36°48' W 076°18'0 0.0
2017-Oct-14 13:00N 36°48' W 076°18'0 0.0
2017-Oct-14 12:30N 36°48' W 076°18'0 0.0
2017-Oct-14 12:01N 36°48' W 076°18'0 0.0
2017-Oct-14 11:31N 36°48' W 076°18'0 0.0
2017-Oct-14 11:00N 36°48' W 076°18'0 0.0
2017-Oct-14 10:31N 36°48' W 076°18'0 0.0
2017-Oct-14 10:00N 36°48' W 076°18'0 0.0
2017-Oct-14 09:31N 36°48' W 076°18'0 0.0
2017-Oct-14 09:01N 36°48' W 076°18'0 0.0
2017-Oct-14 08:30N 36°48' W 076°18'0 0.0
2017-Oct-14 08:01N 36°48' W 076°18'0 0.0
2017-Oct-14 07:31N 36°48' W 076°18'0 0.0
2017-Oct-14 07:01N 36°48' W 076°18'0 0.0
2017-Oct-14 06:31N 36°48' W 076°18'0 0.0
2017-Oct-14 06:00N 36°48' W 076°18'0 0.0
2017-Oct-14 05:31N 36°48' W 076°18'0 0.0
2017-Oct-14 05:01N 36°48' W 076°18'0 0.0
2017-Oct-14 04:31N 36°48' W 076°18'0 0.0
2017-Oct-14 04:00N 36°48' W 076°18'0 0.0
2017-Oct-14 03:30N 36°48' W 076°18'0 0.0
2017-Oct-14 03:01N 36°48' W 076°18'0 0.0
2017-Oct-14 02:31N 36°48' W 076°18'0 0.0
2017-Oct-14 02:01N 36°48' W 076°18'0 0.0
2017-Oct-14 01:30N 36°48' W 076°18'0 0.0
2017-Oct-14 01:00N 36°48' W 076°18'0 0.0
2017-Oct-14 00:30N 36°48' W 076°18'0 0.0
2017-Oct-14 00:00N 36°48' W 076°18'0 0.0
2017-Oct-13 23:30N 36°48' W 076°18'0 0.0
2017-Oct-13 23:00N 36°48' W 076°18'0 0.0
2017-Oct-13 22:30N 36°48' W 076°18'0 0.0
2017-Oct-13 22:00N 36°48' W 076°18'0 0.0
2017-Oct-13 21:31N 36°48' W 076°18'0 0.0
2017-Oct-13 21:01N 36°48' W 076°18'0 0.0
2017-Oct-13 20:30N 36°48' W 076°18'0 0.0
2017-Oct-13 20:01N 36°48' W 076°18'0 0.0
2017-Oct-13 19:30N 36°48' W 076°18'0 0.0
2017-Oct-13 19:00N 36°48' W 076°18'0 0.0
2017-Oct-13 18:31N 36°48' W 076°18'0 0.0
2017-Oct-13 18:01N 36°48' W 076°18'0 0.0
2017-Oct-13 17:30N 36°48' W 076°18'0 0.0
2017-Oct-13 17:01N 36°48' W 076°18'0 0.0
2017-Oct-13 16:30N 36°48' W 076°18'0 0.0
2017-Oct-13 16:01N 36°48' W 076°18'0 0.0
2017-Oct-13 15:30N 36°48' W 076°18'0 0.0
2017-Oct-13 15:00N 36°48' W 076°18'0 0.0
2017-Oct-13 14:31N 36°48' W 076°18'0 0.0
2017-Oct-13 14:01N 36°48' W 076°18'0 0.0
2017-Oct-13 13:30N 36°48' W 076°18'0 0.0
2017-Oct-13 13:01N 36°48' W 076°18'0 0.0
2017-Oct-13 12:31N 36°48' W 076°18'0 0.0
2017-Oct-13 12:01N 36°48' W 076°18'0 0.0
2017-Oct-13 11:30N 36°48' W 076°18'0 0.0
2017-Oct-13 11:01N 36°48' W 076°18'0 0.0
2017-Oct-13 10:30N 36°48' W 076°18'0 0.0
2017-Oct-13 10:01N 36°48' W 076°18'0 0.0
2017-Oct-13 09:31N 36°48' W 076°18'0 0.0
2017-Oct-13 09:00N 36°48' W 076°18'0 0.0
2017-Oct-13 08:31N 36°48' W 076°18'0 0.0
2017-Oct-13 08:01N 36°48' W 076°18'0 0.0
2017-Oct-13 07:31N 36°48' W 076°18'0 0.0
2017-Oct-13 07:01N 36°48' W 076°18'0 0.0
2017-Oct-13 06:30N 36°48' W 076°18'0 0.0
2017-Oct-13 06:01N 36°48' W 076°18'0 0.0
2017-Oct-13 05:31N 36°48' W 076°18'0 0.0
2017-Oct-13 05:00N 36°48' W 076°18'0 0.0
2017-Oct-13 04:30N 36°48' W 076°18'0 0.0
2017-Oct-13 04:00N 36°48' W 076°18'0 0.0
2017-Oct-13 03:31N 36°48' W 076°18'0 0.0
2017-Oct-13 03:00N 36°48' W 076°18'0 0.0
2017-Oct-13 02:31N 36°48' W 076°18'0 0.0
2017-Oct-13 02:00N 36°48' W 076°18'0 0.0
2017-Oct-13 01:31N 36°48' W 076°18'0 0.0
2017-Oct-13 01:01N 36°48' W 076°18'0 0.0
2017-Oct-13 00:31N 36°48' W 076°18'0 0.0
2017-Oct-13 00:00N 36°48' W 076°18'0 0.0
2017-Oct-12 23:30N 36°48' W 076°18'0 0.0
2017-Oct-12 23:01N 36°48' W 076°18'0 0.0
2017-Oct-12 22:30N 36°48' W 076°18'0 0.0
2017-Oct-12 22:01N 36°48' W 076°18'0 0.0
2017-Oct-12 21:30N 36°48' W 076°18'0 0.0
2017-Oct-12 21:01N 36°48' W 076°18'0 0.0
2017-Oct-12 20:31N 36°48' W 076°18'0 0.0
2017-Oct-12 20:01N 36°48' W 076°18'0 0.0
2017-Oct-12 19:30N 36°48' W 076°18'0 0.0
2017-Oct-12 19:01N 36°48' W 076°18'0 0.0
2017-Oct-12 18:31N 36°48' W 076°18'0 0.0
2017-Oct-12 18:01N 36°48' W 076°18'0 0.0
2017-Oct-12 17:31N 36°48' W 076°18'0 0.0
2017-Oct-12 17:01N 36°48' W 076°18'0 0.0
2017-Oct-12 16:31N 36°48' W 076°18'0 0.0
2017-Oct-12 16:01N 36°48' W 076°18'2 4.9
2017-Oct-12 15:31N 36°50' W 076°18'4 7.2
2017-Oct-12 15:00N 36°53' W 076°20'1 0.1
2017-Oct-12 09:28N 36°53' W 076°20'5 0.5
2017-Oct-11 23:06N 36°48' W 076°18'0 0.1
2017-Oct-11 23:00N 36°48' W 076°18'0 0.0
2017-Oct-11 22:30N 36°48' W 076°18'0 0.0
2017-Oct-11 22:00N 36°48' W 076°18'0 0.0
2017-Oct-11 21:30N 36°48' W 076°18'0 0.0
2017-Oct-11 20:58N 36°48' W 076°18'0 0.0
2017-Oct-11 20:30N 36°48' W 076°18'0 0.0
2017-Oct-11 20:01N 36°48' W 076°18'0 0.0
2017-Oct-11 19:30N 36°48' W 076°18'0 0.0
2017-Oct-11 19:00N 36°48' W 076°18'0 0.0
2017-Oct-11 18:30N 36°48' W 076°18'0 0.0
2017-Oct-11 17:58N 36°48' W 076°18'0 0.0
2017-Oct-11 17:30N 36°48' W 076°18'0 0.0
2017-Oct-11 17:00N 36°48' W 076°18'1 0.1
2017-Oct-11 00:00N 36°47' W 076°18'0 0.8
2017-Oct-10 23:30N 36°47' W 076°18'1 2.2
2017-Oct-10 23:00N 36°48' W 076°18'0 0.0
2017-Oct-10 22:30N 36°48' W 076°18'0 0.0
2017-Oct-10 22:00N 36°48' W 076°18'0 0.0
2017-Oct-10 21:30N 36°48' W 076°18'0 0.0
2017-Oct-10 21:00N 36°48' W 076°18'0 0.0
2017-Oct-10 20:30N 36°48' W 076°18'0 0.8
2017-Oct-10 20:00N 36°48' W 076°17'3 6.1
2017-Oct-10 19:30N 36°51' W 076°19'  

Dump ship's entire track history